sensor_id;sensor_type;location;lat;lon;timestamp;temperature;humidity
4643;DHT22;2334;48.710;9.622;2023-05-20T00:00:22;12.70;99.90
4643;DHT22;2334;48.710;9.622;2023-05-20T00:02:52;12.70;99.90
4643;DHT22;2334;48.710;9.622;2023-05-20T00:05:19;12.60;99.90
4643;DHT22;2334;48.710;9.622;2023-05-20T00:07:45;12.60;99.90
4643;DHT22;2334;48.710;9.622;2023-05-20T00:10:12;12.60;99.90
4643;DHT22;2334;48.710;9.622;2023-05-20T00:12:39;12.60;99.90
4643;DHT22;2334;48.710;9.622;2023-05-20T00:15:07;12.60;99.90
4643;DHT22;2334;48.710;9.622;2023-05-20T00:17:37;12.60;99.90
4643;DHT22;2334;48.710;9.622;2023-05-20T00:20:05;12.50;99.90
4643;DHT22;2334;48.710;9.622;2023-05-20T00:22:32;12.50;99.90
4643;DHT22;2334;48.710;9.622;2023-05-20T00:25:03;12.50;99.90
4643;DHT22;2334;48.710;9.622;2023-05-20T00:27:30;12.50;99.90
4643;DHT22;2334;48.710;9.622;2023-05-20T00:30:01;12.50;99.90
4643;DHT22;2334;48.710;9.622;2023-05-20T00:32:30;12.60;99.90
4643;DHT22;2334;48.710;9.622;2023-05-20T00:34:58;12.50;99.90
4643;DHT22;2334;48.710;9.622;2023-05-20T00:37:26;12.50;99.90
4643;DHT22;2334;48.710;9.622;2023-05-20T00:39:53;12.50;99.90
4643;DHT22;2334;48.710;9.622;2023-05-20T00:42:21;12.50;99.90
4643;DHT22;2334;48.710;9.622;2023-05-20T00:44:48;12.50;99.90
4643;DHT22;2334;48.710;9.622;2023-05-20T00:47:16;12.40;99.90
4643;DHT22;2334;48.710;9.622;2023-05-20T00:49:46;12.40;99.90
4643;DHT22;2334;48.710;9.622;2023-05-20T00:52:14;12.40;99.90
4643;DHT22;2334;48.710;9.622;2023-05-20T00:54:41;12.20;99.90
4643;DHT22;2334;48.710;9.622;2023-05-20T00:57:09;12.20;99.90
4643;DHT22;2334;48.710;9.622;2023-05-20T00:59:37;12.20;99.90
4643;DHT22;2334;48.710;9.622;2023-05-20T01:02:04;12.00;99.90
4643;DHT22;2334;48.710;9.622;2023-05-20T01:04:32;11.90;99.90
4643;DHT22;2334;48.710;9.622;2023-05-20T01:07:03;11.90;99.90
4643;DHT22;2334;48.710;9.622;2023-05-20T01:09:32;12.00;99.90
4643;DHT22;2334;48.710;9.622;2023-05-20T01:12:05;12.00;99.90
4643;DHT22;2334;48.710;9.622;2023-05-20T01:14:39;12.00;99.90
4643;DHT22;2334;48.710;9.622;2023-05-20T01:17:09;11.90;99.90
4643;DHT22;2334;48.710;9.622;2023-05-20T01:19:40;11.90;99.90
4643;DHT22;2334;48.710;9.622;2023-05-20T01:22:10;11.80;99.90
4643;DHT22;2334;48.710;9.622;2023-05-20T01:24:40;11.80;99.90
4643;DHT22;2334;48.710;9.622;2023-05-20T01:27:08;11.70;99.90
4643;DHT22;2334;48.710;9.622;2023-05-20T01:29:35;11.70;99.90
4643;DHT22;2334;48.710;9.622;2023-05-20T01:32:05;11.50;99.90
4643;DHT22;2334;48.710;9.622;2023-05-20T01:34:34;11.50;99.90
4643;DHT22;2334;48.710;9.622;2023-05-20T01:37:03;11.50;99.90
4643;DHT22;2334;48.710;9.622;2023-05-20T01:39:33;11.50;99.90
4643;DHT22;2334;48.710;9.622;2023-05-20T01:42:04;11.50;99.90
4643;DHT22;2334;48.710;9.622;2023-05-20T01:44:31;11.50;99.90
4643;DHT22;2334;48.710;9.622;2023-05-20T01:47:01;11.50;99.90
4643;DHT22;2334;48.710;9.622;2023-05-20T01:49:28;11.50;99.90
4643;DHT22;2334;48.710;9.622;2023-05-20T01:51:55;11.50;99.90
4643;DHT22;2334;48.710;9.622;2023-05-20T01:54:22;11.50;99.90
4643;DHT22;2334;48.710;9.622;2023-05-20T01:56:49;11.50;99.90
4643;DHT22;2334;48.710;9.622;2023-05-20T01:59:18;11.40;99.90
4643;DHT22;2334;48.710;9.622;2023-05-20T02:01:45;11.40;99.90
4643;DHT22;2334;48.710;9.622;2023-05-20T02:04:12;11.40;99.90
4643;DHT22;2334;48.710;9.622;2023-05-20T02:06:39;11.40;99.90
4643;DHT22;2334;48.710;9.622;2023-05-20T02:09:06;11.40;99.90
4643;DHT22;2334;48.710;9.622;2023-05-20T02:11:32;11.40;99.90
4643;DHT22;2334;48.710;9.622;2023-05-20T02:14:00;11.30;99.90
4643;DHT22;2334;48.710;9.622;2023-05-20T02:16:30;11.30;99.90
4643;DHT22;2334;48.710;9.622;2023-05-20T02:18:57;11.30;99.90
4643;DHT22;2334;48.710;9.622;2023-05-20T02:21:27;11.30;99.90
4643;DHT22;2334;48.710;9.622;2023-05-20T02:23:54;11.30;99.90
4643;DHT22;2334;48.710;9.622;2023-05-20T02:26:21;11.30;99.90
4643;DHT22;2334;48.710;9.622;2023-05-20T02:28:48;11.30;99.90
4643;DHT22;2334;48.710;9.622;2023-05-20T02:31:15;11.30;99.90
4643;DHT22;2334;48.710;9.622;2023-05-20T02:33:46;11.30;99.90
4643;DHT22;2334;48.710;9.622;2023-05-20T02:36:13;11.30;99.90
4643;DHT22;2334;48.710;9.622;2023-05-20T02:38:41;11.30;99.90
4643;DHT22;2334;48.710;9.622;2023-05-20T02:41:08;11.20;99.90
4643;DHT22;2334;48.710;9.622;2023-05-20T02:43:35;11.20;99.90
4643;DHT22;2334;48.710;9.622;2023-05-20T02:46:02;11.20;99.90
4643;DHT22;2334;48.710;9.622;2023-05-20T02:48:29;11.20;99.90
4643;DHT22;2334;48.710;9.622;2023-05-20T02:50:58;11.20;99.90
4643;DHT22;2334;48.710;9.622;2023-05-20T02:53:25;11.20;99.90
4643;DHT22;2334;48.710;9.622;2023-05-20T02:55:51;11.20;99.90
4643;DHT22;2334;48.710;9.622;2023-05-20T02:58:19;11.20;99.90
4643;DHT22;2334;48.710;9.622;2023-05-20T03:00:50;11.20;99.90
4643;DHT22;2334;48.710;9.622;2023-05-20T03:03:17;11.20;99.90
4643;DHT22;2334;48.710;9.622;2023-05-20T03:05:44;11.20;99.90
4643;DHT22;2334;48.710;9.622;2023-05-20T03:08:12;11.30;99.90
4643;DHT22;2334;48.710;9.622;2023-05-20T03:10:39;11.30;99.90
4643;DHT22;2334;48.710;9.622;2023-05-20T03:13:07;11.30;99.90
4643;DHT22;2334;48.710;9.622;2023-05-20T03:15:36;11.30;99.90
4643;DHT22;2334;48.710;9.622;2023-05-20T03:18:10;11.40;99.90
4643;DHT22;2334;48.710;9.622;2023-05-20T03:20:38;11.40;99.90
4643;DHT22;2334;48.710;9.622;2023-05-20T03:23:07;11.40;99.90
4643;DHT22;2334;48.710;9.622;2023-05-20T03:25:38;11.50;99.90
4643;DHT22;2334;48.710;9.622;2023-05-20T03:28:05;11.50;99.90
4643;DHT22;2334;48.710;9.622;2023-05-20T03:30:32;11.50;99.90
4643;DHT22;2334;48.710;9.622;2023-05-20T03:32:59;11.50;99.90
4643;DHT22;2334;48.710;9.622;2023-05-20T03:35:27;11.60;99.90
4643;DHT22;2334;48.710;9.622;2023-05-20T03:37:54;11.60;99.90
4643;DHT22;2334;48.710;9.622;2023-05-20T03:40:21;11.50;99.90
4643;DHT22;2334;48.710;9.622;2023-05-20T03:42:49;11.50;99.90
4643;DHT22;2334;48.710;9.622;2023-05-20T03:45:16;11.60;99.90
4643;DHT22;2334;48.710;9.622;2023-05-20T03:47:43;11.60;99.90
4643;DHT22;2334;48.710;9.622;2023-05-20T03:50:17;11.60;99.90
4643;DHT22;2334;48.710;9.622;2023-05-20T03:52:44;11.70;99.90
4643;DHT22;2334;48.710;9.622;2023-05-20T03:55:11;11.70;99.90
4643;DHT22;2334;48.710;9.622;2023-05-20T03:57:38;11.70;99.90
4643;DHT22;2334;48.710;9.622;2023-05-20T04:00:07;11.70;99.90
4643;DHT22;2334;48.710;9.622;2023-05-20T04:02:37;11.70;99.90
4643;DHT22;2334;48.710;9.622;2023-05-20T04:05:05;11.80;99.90
4643;DHT22;2334;48.710;9.622;2023-05-20T04:07:36;11.80;99.90
4643;DHT22;2334;48.710;9.622;2023-05-20T04:10:03;11.80;99.90
4643;DHT22;2334;48.710;9.622;2023-05-20T04:12:33;11.80;99.90
4643;DHT22;2334;48.710;9.622;2023-05-20T04:15:07;11.80;99.90
4643;DHT22;2334;48.710;9.622;2023-05-20T04:17:34;11.90;99.90
4643;DHT22;2334;48.710;9.622;2023-05-20T04:20:05;11.90;99.90
4643;DHT22;2334;48.710;9.622;2023-05-20T04:22:34;11.90;99.90
4643;DHT22;2334;48.710;9.622;2023-05-20T04:25:01;11.90;99.90
4643;DHT22;2334;48.710;9.622;2023-05-20T04:27:31;12.00;99.90
4643;DHT22;2334;48.710;9.622;2023-05-20T04:29:59;12.00;99.90
4643;DHT22;2334;48.710;9.622;2023-05-20T04:32:28;12.00;99.90
4643;DHT22;2334;48.710;9.622;2023-05-20T04:34:55;12.00;99.90
4643;DHT22;2334;48.710;9.622;2023-05-20T04:37:22;12.10;99.90
4643;DHT22;2334;48.710;9.622;2023-05-20T04:39:49;12.10;99.90
4643;DHT22;2334;48.710;9.622;2023-05-20T04:42:17;12.10;99.90
4643;DHT22;2334;48.710;9.622;2023-05-20T04:44:44;12.10;99.90
4643;DHT22;2334;48.710;9.622;2023-05-20T04:47:12;12.20;99.90
4643;DHT22;2334;48.710;9.622;2023-05-20T04:49:41;12.20;99.90
4643;DHT22;2334;48.710;9.622;2023-05-20T04:52:07;12.20;99.90
4643;DHT22;2334;48.710;9.622;2023-05-20T04:54:35;12.30;99.90
4643;DHT22;2334;48.710;9.622;2023-05-20T04:57:02;12.30;99.90
4643;DHT22;2334;48.710;9.622;2023-05-20T04:59:29;12.40;99.90
4643;DHT22;2334;48.710;9.622;2023-05-20T05:01:57;12.40;99.90
4643;DHT22;2334;48.710;9.622;2023-05-20T05:04:24;12.40;99.90
4643;DHT22;2334;48.710;9.622;2023-05-20T05:06:52;12.50;99.90
4643;DHT22;2334;48.710;9.622;2023-05-20T05:09:19;12.60;99.90
4643;DHT22;2334;48.710;9.622;2023-05-20T05:11:46;12.60;99.90
4643;DHT22;2334;48.710;9.622;2023-05-20T05:14:13;12.60;99.90
4643;DHT22;2334;48.710;9.622;2023-05-20T05:16:42;12.60;99.90
4643;DHT22;2334;48.710;9.622;2023-05-20T05:19:09;12.60;99.90
4643;DHT22;2334;48.710;9.622;2023-05-20T05:21:37;12.60;99.90
4643;DHT22;2334;48.710;9.622;2023-05-20T05:24:06;12.70;99.90
4643;DHT22;2334;48.710;9.622;2023-05-20T05:26:33;12.70;99.90
4643;DHT22;2334;48.710;9.622;2023-05-20T05:28:59;12.80;99.90
4643;DHT22;2334;48.710;9.622;2023-05-20T05:31:26;12.80;99.90
4643;DHT22;2334;48.710;9.622;2023-05-20T05:33:53;12.90;99.90
4643;DHT22;2334;48.710;9.622;2023-05-20T05:36:23;13.00;99.90
4643;DHT22;2334;48.710;9.622;2023-05-20T05:38:50;13.00;99.90
4643;DHT22;2334;48.710;9.622;2023-05-20T05:41:19;13.10;99.90
4643;DHT22;2334;48.710;9.622;2023-05-20T05:43:45;13.20;99.90
4643;DHT22;2334;48.710;9.622;2023-05-20T05:46:12;13.20;99.90
4643;DHT22;2334;48.710;9.622;2023-05-20T05:48:40;13.30;99.90
4643;DHT22;2334;48.710;9.622;2023-05-20T05:51:07;13.30;99.90
4643;DHT22;2334;48.710;9.622;2023-05-20T05:53:34;13.40;99.90
4643;DHT22;2334;48.710;9.622;2023-05-20T05:56:01;13.40;99.90
4643;DHT22;2334;48.710;9.622;2023-05-20T05:58:29;13.60;99.90
4643;DHT22;2334;48.710;9.622;2023-05-20T06:00:56;13.60;99.90
4643;DHT22;2334;48.710;9.622;2023-05-20T06:03:22;13.60;99.90
4643;DHT22;2334;48.710;9.622;2023-05-20T06:05:49;13.80;99.90
4643;DHT22;2334;48.710;9.622;2023-05-20T06:08:19;13.80;99.90
4643;DHT22;2334;48.710;9.622;2023-05-20T06:10:47;13.90;99.90
4643;DHT22;2334;48.710;9.622;2023-05-20T06:13:14;13.90;99.90
4643;DHT22;2334;48.710;9.622;2023-05-20T06:15:42;14.00;99.90
4643;DHT22;2334;48.710;9.622;2023-05-20T06:18:11;14.00;99.90
4643;DHT22;2334;48.710;9.622;2023-05-20T06:20:38;14.00;99.90
4643;DHT22;2334;48.710;9.622;2023-05-20T06:23:05;14.10;99.90
4643;DHT22;2334;48.710;9.622;2023-05-20T06:25:32;14.20;99.90
4643;DHT22;2334;48.710;9.622;2023-05-20T06:27:59;14.30;99.90
4643;DHT22;2334;48.710;9.622;2023-05-20T06:30:26;14.40;99.90
4643;DHT22;2334;48.710;9.622;2023-05-20T06:32:54;14.50;99.90
4643;DHT22;2334;48.710;9.622;2023-05-20T06:35:20;14.60;99.90
4643;DHT22;2334;48.710;9.622;2023-05-20T06:37:47;14.60;99.90
4643;DHT22;2334;48.710;9.622;2023-05-20T06:40:14;14.60;99.90
4643;DHT22;2334;48.710;9.622;2023-05-20T06:42:43;14.60;99.90
4643;DHT22;2334;48.710;9.622;2023-05-20T06:45:10;14.60;99.90
4643;DHT22;2334;48.710;9.622;2023-05-20T06:47:38;14.70;99.90
4643;DHT22;2334;48.710;9.622;2023-05-20T06:50:07;14.70;99.90
4643;DHT22;2334;48.710;9.622;2023-05-20T06:52:34;14.80;99.90
4643;DHT22;2334;48.710;9.622;2023-05-20T06:55:01;14.90;99.90
4643;DHT22;2334;48.710;9.622;2023-05-20T06:57:29;14.90;99.90
4643;DHT22;2334;48.710;9.622;2023-05-20T06:59:55;15.00;99.90
4643;DHT22;2334;48.710;9.622;2023-05-20T07:02:23;15.20;99.90
4643;DHT22;2334;48.710;9.622;2023-05-20T07:04:50;15.40;99.90
4643;DHT22;2334;48.710;9.622;2023-05-20T07:07:19;15.60;99.90
4643;DHT22;2334;48.710;9.622;2023-05-20T07:09:45;15.70;99.90
4643;DHT22;2334;48.710;9.622;2023-05-20T07:12:12;15.90;99.90
4643;DHT22;2334;48.710;9.622;2023-05-20T07:14:39;15.90;99.90
4643;DHT22;2334;48.710;9.622;2023-05-20T07:17:06;16.20;99.90
4643;DHT22;2334;48.710;9.622;2023-05-20T07:19:33;16.30;99.90
4643;DHT22;2334;48.710;9.622;2023-05-20T07:22:00;16.30;99.90
4643;DHT22;2334;48.710;9.622;2023-05-20T07:24:28;16.20;99.90
4643;DHT22;2334;48.710;9.622;2023-05-20T07:26:55;16.20;99.90
4643;DHT22;2334;48.710;9.622;2023-05-20T07:29:24;16.10;99.90
4643;DHT22;2334;48.710;9.622;2023-05-20T07:31:51;16.10;99.90
4643;DHT22;2334;48.710;9.622;2023-05-20T07:34:18;16.30;99.90
4643;DHT22;2334;48.710;9.622;2023-05-20T07:36:45;16.30;99.90
4643;DHT22;2334;48.710;9.622;2023-05-20T07:39:11;16.30;99.90
4643;DHT22;2334;48.710;9.622;2023-05-20T07:41:40;16.20;99.90
4643;DHT22;2334;48.710;9.622;2023-05-20T07:44:07;16.00;99.90
4643;DHT22;2334;48.710;9.622;2023-05-20T07:46:35;16.10;99.90
4643;DHT22;2334;48.710;9.622;2023-05-20T07:49:03;16.10;99.90
4643;DHT22;2334;48.710;9.622;2023-05-20T07:51:30;16.10;99.90
4643;DHT22;2334;48.710;9.622;2023-05-20T07:53:57;16.20;99.90
4643;DHT22;2334;48.710;9.622;2023-05-20T07:56:24;16.10;99.90
4643;DHT22;2334;48.710;9.622;2023-05-20T07:58:53;16.10;99.90
4643;DHT22;2334;48.710;9.622;2023-05-20T08:01:25;16.20;99.90
4643;DHT22;2334;48.710;9.622;2023-05-20T08:03:52;16.20;99.90
4643;DHT22;2334;48.710;9.622;2023-05-20T08:06:22;16.30;99.90
4643;DHT22;2334;48.710;9.622;2023-05-20T08:08:49;16.40;99.90
4643;DHT22;2334;48.710;9.622;2023-05-20T08:11:18;16.60;99.90
4643;DHT22;2334;48.710;9.622;2023-05-20T08:13:46;16.40;99.90
4643;DHT22;2334;48.710;9.622;2023-05-20T08:16:14;16.30;99.90
4643;DHT22;2334;48.710;9.622;2023-05-20T08:18:41;16.40;99.90
4643;DHT22;2334;48.710;9.622;2023-05-20T08:21:08;16.40;99.90
4643;DHT22;2334;48.710;9.622;2023-05-20T08:23:35;16.50;99.90
4643;DHT22;2334;48.710;9.622;2023-05-20T08:26:02;16.60;99.90
4643;DHT22;2334;48.710;9.622;2023-05-20T08:28:30;16.60;99.90
4643;DHT22;2334;48.710;9.622;2023-05-20T08:30:59;16.70;99.90
4643;DHT22;2334;48.710;9.622;2023-05-20T08:33:28;17.00;99.90
4643;DHT22;2334;48.710;9.622;2023-05-20T08:35:55;17.10;99.90
4643;DHT22;2334;48.710;9.622;2023-05-20T08:38:22;17.20;99.90
4643;DHT22;2334;48.710;9.622;2023-05-20T08:40:51;17.40;99.90
4643;DHT22;2334;48.710;9.622;2023-05-20T08:43:18;17.60;99.90
4643;DHT22;2334;48.710;9.622;2023-05-20T08:45:45;17.80;99.90
4643;DHT22;2334;48.710;9.622;2023-05-20T08:48:12;17.50;99.90
4643;DHT22;2334;48.710;9.622;2023-05-20T08:50:43;17.40;99.90
4643;DHT22;2334;48.710;9.622;2023-05-20T08:53:11;17.70;99.90
4643;DHT22;2334;48.710;9.622;2023-05-20T08:55:44;17.70;99.90
4643;DHT22;2334;48.710;9.622;2023-05-20T08:58:13;17.70;99.90
4643;DHT22;2334;48.710;9.622;2023-05-20T09:00:40;17.60;99.90
4643;DHT22;2334;48.710;9.622;2023-05-20T09:03:07;17.50;99.90
4643;DHT22;2334;48.710;9.622;2023-05-20T09:05:34;17.70;99.90
4643;DHT22;2334;48.710;9.622;2023-05-20T09:08:06;17.80;99.90
4643;DHT22;2334;48.710;9.622;2023-05-20T09:10:33;18.10;99.90
4643;DHT22;2334;48.710;9.622;2023-05-20T09:13:01;18.20;99.90
4643;DHT22;2334;48.710;9.622;2023-05-20T09:15:28;18.70;99.90
4643;DHT22;2334;48.710;9.622;2023-05-20T09:17:58;18.90;99.90
4643;DHT22;2334;48.710;9.622;2023-05-20T09:20:25;19.20;99.90
4643;DHT22;2334;48.710;9.622;2023-05-20T09:22:57;19.00;99.90
4643;DHT22;2334;48.710;9.622;2023-05-20T09:25:26;19.10;99.90
4643;DHT22;2334;48.710;9.622;2023-05-20T09:27:53;19.30;99.90
4643;DHT22;2334;48.710;9.622;2023-05-20T09:30:21;19.50;99.90
4643;DHT22;2334;48.710;9.622;2023-05-20T09:32:52;19.70;99.90
4643;DHT22;2334;48.710;9.622;2023-05-20T09:35:20;20.20;99.90
4643;DHT22;2334;48.710;9.622;2023-05-20T09:37:50;20.90;99.90
4643;DHT22;2334;48.710;9.622;2023-05-20T09:40:21;20.90;99.90
4643;DHT22;2334;48.710;9.622;2023-05-20T09:42:52;21.00;99.90
4643;DHT22;2334;48.710;9.622;2023-05-20T09:45:20;21.10;99.90
4643;DHT22;2334;48.710;9.622;2023-05-20T09:47:49;21.20;99.90
4643;DHT22;2334;48.710;9.622;2023-05-20T09:50:16;21.00;99.90
4643;DHT22;2334;48.710;9.622;2023-05-20T09:52:48;20.90;99.90
4643;DHT22;2334;48.710;9.622;2023-05-20T09:55:16;20.50;99.90
4643;DHT22;2334;48.710;9.622;2023-05-20T09:57:44;21.00;99.90
4643;DHT22;2334;48.710;9.622;2023-05-20T10:00:14;20.70;99.90
4643;DHT22;2334;48.710;9.622;2023-05-20T10:02:45;20.10;99.90
4643;DHT22;2334;48.710;9.622;2023-05-20T10:05:16;19.70;99.90
4643;DHT22;2334;48.710;9.622;2023-05-20T10:10:43;19.60;99.90
4643;DHT22;2334;48.710;9.622;2023-05-20T10:13:22;19.90;99.90
4643;DHT22;2334;48.710;9.622;2023-05-20T10:15:59;20.00;99.90
4643;DHT22;2334;48.710;9.622;2023-05-20T10:18:42;20.30;99.90
4643;DHT22;2334;48.710;9.622;2023-05-20T10:21:15;20.70;99.90
4643;DHT22;2334;48.710;9.622;2023-05-20T10:23:42;21.10;99.90
4643;DHT22;2334;48.710;9.622;2023-05-20T10:26:09;21.30;99.90
4643;DHT22;2334;48.710;9.622;2023-05-20T10:28:44;21.40;99.90
4643;DHT22;2334;48.710;9.622;2023-05-20T10:31:21;21.60;99.90
4643;DHT22;2334;48.710;9.622;2023-05-20T10:33:52;21.70;99.90
4643;DHT22;2334;48.710;9.622;2023-05-20T10:36:22;22.00;99.90
4643;DHT22;2334;48.710;9.622;2023-05-20T10:38:52;22.20;99.90
4643;DHT22;2334;48.710;9.622;2023-05-20T10:41:21;21.90;99.90
4643;DHT22;2334;48.710;9.622;2023-05-20T10:43:58;21.70;99.90
4643;DHT22;2334;48.710;9.622;2023-05-20T10:46:27;22.00;99.90
4643;DHT22;2334;48.710;9.622;2023-05-20T10:48:54;22.30;99.90
4643;DHT22;2334;48.710;9.622;2023-05-20T10:51:22;22.60;99.90
4643;DHT22;2334;48.710;9.622;2023-05-20T10:53:52;21.70;99.90
4643;DHT22;2334;48.710;9.622;2023-05-20T10:56:21;22.40;99.90
4643;DHT22;2334;48.710;9.622;2023-05-20T10:58:48;22.80;99.90
4643;DHT22;2334;48.710;9.622;2023-05-20T11:01:16;22.60;99.90
4643;DHT22;2334;48.710;9.622;2023-05-20T11:03:48;22.70;99.90
4643;DHT22;2334;48.710;9.622;2023-05-20T11:06:16;22.50;99.90
4643;DHT22;2334;48.710;9.622;2023-05-20T11:08:44;21.90;99.90
4643;DHT22;2334;48.710;9.622;2023-05-20T11:11:11;21.90;99.90
4643;DHT22;2334;48.710;9.622;2023-05-20T11:13:39;21.80;99.90
4643;DHT22;2334;48.710;9.622;2023-05-20T11:16:08;22.40;99.90
4643;DHT22;2334;48.710;9.622;2023-05-20T11:18:35;22.60;99.90
4643;DHT22;2334;48.710;9.622;2023-05-20T11:21:03;22.80;99.90
4643;DHT22;2334;48.710;9.622;2023-05-20T11:23:31;23.10;99.90
4643;DHT22;2334;48.710;9.622;2023-05-20T11:25:58;23.60;99.90
4643;DHT22;2334;48.710;9.622;2023-05-20T11:28:24;23.70;99.90
4643;DHT22;2334;48.710;9.622;2023-05-20T11:30:52;23.10;99.90
4643;DHT22;2334;48.710;9.622;2023-05-20T11:33:19;22.60;99.90
4643;DHT22;2334;48.710;9.622;2023-05-20T11:35:48;22.10;99.90
4643;DHT22;2334;48.710;9.622;2023-05-20T11:38:18;22.40;99.90
4643;DHT22;2334;48.710;9.622;2023-05-20T11:40:49;22.70;99.90
4643;DHT22;2334;48.710;9.622;2023-05-20T11:43:17;22.80;99.90
4643;DHT22;2334;48.710;9.622;2023-05-20T11:45:44;22.80;99.90
4643;DHT22;2334;48.710;9.622;2023-05-20T11:48:12;22.50;99.90
4643;DHT22;2334;48.710;9.622;2023-05-20T11:50:41;22.50;99.90
4643;DHT22;2334;48.710;9.622;2023-05-20T11:53:09;23.30;99.90
4643;DHT22;2334;48.710;9.622;2023-05-20T11:55:45;23.60;99.90
4643;DHT22;2334;48.710;9.622;2023-05-20T11:58:15;23.60;99.90
4643;DHT22;2334;48.710;9.622;2023-05-20T12:00:42;24.30;99.90
4643;DHT22;2334;48.710;9.622;2023-05-20T12:03:09;24.40;99.90
4643;DHT22;2334;48.710;9.622;2023-05-20T12:05:36;24.50;99.90
4643;DHT22;2334;48.710;9.622;2023-05-20T12:08:04;24.80;99.90
4643;DHT22;2334;48.710;9.622;2023-05-20T12:10:31;24.30;99.90
4643;DHT22;2334;48.710;9.622;2023-05-20T12:12:59;23.70;99.90
4643;DHT22;2334;48.710;9.622;2023-05-20T12:15:27;23.50;99.90
4643;DHT22;2334;48.710;9.622;2023-05-20T12:17:54;23.30;99.90
4643;DHT22;2334;48.710;9.622;2023-05-20T12:20:22;23.10;99.90
4643;DHT22;2334;48.710;9.622;2023-05-20T12:22:50;22.90;99.90
4643;DHT22;2334;48.710;9.622;2023-05-20T12:25:18;22.90;99.90
4643;DHT22;2334;48.710;9.622;2023-05-20T12:27:47;23.10;99.90
4643;DHT22;2334;48.710;9.622;2023-05-20T12:30:18;23.20;99.90
4643;DHT22;2334;48.710;9.622;2023-05-20T12:32:46;23.30;99.90
4643;DHT22;2334;48.710;9.622;2023-05-20T12:35:14;23.90;99.90
4643;DHT22;2334;48.710;9.622;2023-05-20T12:37:42;24.30;99.90
4643;DHT22;2334;48.710;9.622;2023-05-20T12:40:10;24.60;99.90
4643;DHT22;2334;48.710;9.622;2023-05-20T12:42:38;25.10;99.90
4643;DHT22;2334;48.710;9.622;2023-05-20T12:45:06;25.40;99.90
4643;DHT22;2334;48.710;9.622;2023-05-20T12:47:35;25.80;99.90
4643;DHT22;2334;48.710;9.622;2023-05-20T12:50:02;25.70;99.90
4643;DHT22;2334;48.710;9.622;2023-05-20T12:52:29;25.50;99.90
4643;DHT22;2334;48.710;9.622;2023-05-20T12:54:58;25.30;99.90
4643;DHT22;2334;48.710;9.622;2023-05-20T12:57:25;25.00;99.90
4643;DHT22;2334;48.710;9.622;2023-05-20T12:59:52;24.70;99.90
4643;DHT22;2334;48.710;9.622;2023-05-20T13:02:19;24.70;99.90
4643;DHT22;2334;48.710;9.622;2023-05-20T13:04:47;25.00;99.90
4643;DHT22;2334;48.710;9.622;2023-05-20T13:07:14;25.30;99.90
4643;DHT22;2334;48.710;9.622;2023-05-20T13:09:42;25.10;99.90
4643;DHT22;2334;48.710;9.622;2023-05-20T13:12:09;24.90;99.90
4643;DHT22;2334;48.710;9.622;2023-05-20T13:14:36;25.20;99.90
4643;DHT22;2334;48.710;9.622;2023-05-20T13:17:03;25.70;99.90
4643;DHT22;2334;48.710;9.622;2023-05-20T13:19:30;25.80;99.90
4643;DHT22;2334;48.710;9.622;2023-05-20T13:21:59;25.90;99.90
4643;DHT22;2334;48.710;9.622;2023-05-20T13:24:26;26.60;99.90
4643;DHT22;2334;48.710;9.622;2023-05-20T13:26:53;26.80;99.90
4643;DHT22;2334;48.710;9.622;2023-05-20T13:29:23;27.00;99.90
4643;DHT22;2334;48.710;9.622;2023-05-20T13:31:50;26.90;99.90
4643;DHT22;2334;48.710;9.622;2023-05-20T13:34:17;26.50;99.90
4643;DHT22;2334;48.710;9.622;2023-05-20T13:36:44;26.40;99.90
4643;DHT22;2334;48.710;9.622;2023-05-20T13:39:14;26.30;99.90
4643;DHT22;2334;48.710;9.622;2023-05-20T13:41:41;25.90;99.90
4643;DHT22;2334;48.710;9.622;2023-05-20T13:44:08;25.30;99.90
4643;DHT22;2334;48.710;9.622;2023-05-20T13:46:35;24.90;99.90
4643;DHT22;2334;48.710;9.622;2023-05-20T13:49:01;24.80;99.90
4643;DHT22;2334;48.710;9.622;2023-05-20T13:51:29;24.70;99.90
4643;DHT22;2334;48.710;9.622;2023-05-20T13:53:56;24.70;99.90
4643;DHT22;2334;48.710;9.622;2023-05-20T13:56:24;25.10;99.90
4643;DHT22;2334;48.710;9.622;2023-05-20T13:58:51;25.40;99.90
4643;DHT22;2334;48.710;9.622;2023-05-20T14:01:18;25.60;99.90
4643;DHT22;2334;48.710;9.622;2023-05-20T14:03:45;25.80;99.90
4643;DHT22;2334;48.710;9.622;2023-05-20T14:06:12;26.10;99.90
4643;DHT22;2334;48.710;9.622;2023-05-20T14:08:43;26.00;99.90
4643;DHT22;2334;48.710;9.622;2023-05-20T14:11:12;26.30;99.90
4643;DHT22;2334;48.710;9.622;2023-05-20T14:13:41;26.30;99.90
4643;DHT22;2334;48.710;9.622;2023-05-20T14:16:09;26.40;99.90
4643;DHT22;2334;48.710;9.622;2023-05-20T14:18:36;26.90;99.90
4643;DHT22;2334;48.710;9.622;2023-05-20T14:21:06;27.20;99.90
4643;DHT22;2334;48.710;9.622;2023-05-20T14:23:33;27.10;99.90
4643;DHT22;2334;48.710;9.622;2023-05-20T14:26:00;26.40;99.90
4643;DHT22;2334;48.710;9.622;2023-05-20T14:28:27;26.40;99.90
4643;DHT22;2334;48.710;9.622;2023-05-20T14:30:55;26.40;99.90
4643;DHT22;2334;48.710;9.622;2023-05-20T14:33:22;26.10;99.90
4643;DHT22;2334;48.710;9.622;2023-05-20T14:35:49;26.00;99.90
4643;DHT22;2334;48.710;9.622;2023-05-20T14:38:16;25.90;99.90
4643;DHT22;2334;48.710;9.622;2023-05-20T14:40:44;26.10;99.90
4643;DHT22;2334;48.710;9.622;2023-05-20T14:43:11;25.70;99.90
4643;DHT22;2334;48.710;9.622;2023-05-20T14:45:38;25.40;99.90
4643;DHT22;2334;48.710;9.622;2023-05-20T14:48:06;25.20;99.90
4643;DHT22;2334;48.710;9.622;2023-05-20T14:50:33;25.40;99.90
4643;DHT22;2334;48.710;9.622;2023-05-20T14:53:00;25.40;99.90
4643;DHT22;2334;48.710;9.622;2023-05-20T14:55:29;25.30;99.90
4643;DHT22;2334;48.710;9.622;2023-05-20T14:57:58;25.10;99.90
4643;DHT22;2334;48.710;9.622;2023-05-20T15:00:25;25.10;99.90
4643;DHT22;2334;48.710;9.622;2023-05-20T15:02:52;25.30;99.90
4643;DHT22;2334;48.710;9.622;2023-05-20T15:05:23;25.40;99.90
4643;DHT22;2334;48.710;9.622;2023-05-20T15:07:50;25.60;99.90
4643;DHT22;2334;48.710;9.622;2023-05-20T15:10:19;26.00;99.90
4643;DHT22;2334;48.710;9.622;2023-05-20T15:12:46;26.50;99.90
4643;DHT22;2334;48.710;9.622;2023-05-20T15:15:13;27.30;99.90
4643;DHT22;2334;48.710;9.622;2023-05-20T15:17:40;27.60;99.90
4643;DHT22;2334;48.710;9.622;2023-05-20T15:20:07;27.80;99.90
4643;DHT22;2334;48.710;9.622;2023-05-20T15:22:37;27.70;99.90
4643;DHT22;2334;48.710;9.622;2023-05-20T15:25:07;27.70;99.90
4643;DHT22;2334;48.710;9.622;2023-05-20T15:27:33;27.60;99.90
4643;DHT22;2334;48.710;9.622;2023-05-20T15:30:00;27.50;99.90
4643;DHT22;2334;48.710;9.622;2023-05-20T15:32:30;27.00;99.90
4643;DHT22;2334;48.710;9.622;2023-05-20T15:34:57;26.90;99.90
4643;DHT22;2334;48.710;9.622;2023-05-20T15:37:25;26.70;99.90
4643;DHT22;2334;48.710;9.622;2023-05-20T15:39:53;27.00;99.90
4643;DHT22;2334;48.710;9.622;2023-05-20T15:42:20;27.00;99.90
4643;DHT22;2334;48.710;9.622;2023-05-20T15:44:47;27.30;99.90
4643;DHT22;2334;48.710;9.622;2023-05-20T15:47:14;27.20;99.90
4643;DHT22;2334;48.710;9.622;2023-05-20T15:49:44;26.70;99.90
4643;DHT22;2334;48.710;9.622;2023-05-20T15:52:11;26.70;99.90
4643;DHT22;2334;48.710;9.622;2023-05-20T15:54:38;26.70;99.90
4643;DHT22;2334;48.710;9.622;2023-05-20T15:57:06;26.10;99.90
4643;DHT22;2334;48.710;9.622;2023-05-20T15:59:34;25.60;99.90
4643;DHT22;2334;48.710;9.622;2023-05-20T16:02:01;25.80;99.90
4643;DHT22;2334;48.710;9.622;2023-05-20T16:04:30;26.40;99.90
4643;DHT22;2334;48.710;9.622;2023-05-20T16:06:57;26.80;99.90
4643;DHT22;2334;48.710;9.622;2023-05-20T16:09:26;27.30;99.90